createdAt,value
2022-12-31T00:00:41.444Z,6.45
2022-12-31T00:03:10.898Z,6.51
2022-12-31T00:05:40.566Z,6.48
2022-12-31T00:08:08.807Z,6.52
2022-12-31T00:10:41.585Z,6.52
2022-12-31T00:13:10.615Z,6.52
2022-12-31T00:15:39.140Z,6.47
2022-12-31T00:18:07.764Z,6.45
2022-12-31T00:20:35.917Z,6.51
2022-12-31T00:23:05.426Z,6.55
2022-12-31T00:25:35.848Z,6.57
2022-12-31T00:28:04.384Z,6.52
2022-12-31T00:30:32.912Z,6.55
2022-12-31T00:33:01.178Z,6.53
2022-12-31T00:35:29.491Z,6.53
2022-12-31T00:37:57.713Z,6.47
2022-12-31T00:40:27.214Z,6.44
2022-12-31T00:42:55.383Z,6.47
2022-12-31T00:45:23.550Z,6.46
2022-12-31T00:47:51.647Z,6.47
2022-12-31T00:50:19.827Z,6.48
2022-12-31T00:52:47.899Z,6.50
2022-12-31T00:55:16.080Z,6.50
2022-12-31T00:57:45.647Z,6.51
2022-12-31T01:00:14.985Z,6.44
2022-12-31T01:02:43.233Z,6.52
2022-12-31T01:05:11.486Z,6.61
2022-12-31T01:07:39.616Z,6.68
2022-12-31T01:10:09.091Z,6.72
2022-12-31T01:12:37.279Z,6.77
2022-12-31T01:15:08.149Z,6.85
2022-12-31T01:17:36.289Z,6.91
2022-12-31T01:20:04.417Z,6.91
2022-12-31T01:22:32.479Z,6.93
2022-12-31T01:25:00.627Z,6.88
2022-12-31T01:27:28.758Z,6.92
2022-12-31T01:29:56.801Z,6.91
2022-12-31T01:32:26.251Z,7.01
2022-12-31T01:34:54.374Z,7.01
2022-12-31T01:37:22.429Z,6.96
2022-12-31T01:39:50.583Z,7.05
2022-12-31T01:42:18.661Z,7.13
2022-12-31T01:44:53.692Z,7.06
2022-12-31T01:47:38.409Z,7.12
2022-12-31T01:50:13.316Z,7.12
2022-12-31T01:52:43.649Z,7.09
2022-12-31T01:55:17.692Z,7.02
2022-12-31T01:57:48.198Z,6.95
2022-12-31T02:00:17.258Z,6.81
2022-12-31T02:02:47.409Z,6.69
2022-12-31T02:05:21.279Z,6.93
2022-12-31T02:07:50.495Z,7.01
2022-12-31T02:10:18.907Z,7.01
2022-12-31T02:12:48.052Z,7.09
2022-12-31T02:15:16.594Z,6.99
2022-12-31T02:17:57.409Z,7.07
2022-12-31T02:20:53.731Z,6.89
2022-12-31T02:23:56.989Z,7.04
2022-12-31T02:26:40.363Z,7.11
2022-12-31T02:29:53.565Z,7.05
2022-12-31T02:32:30.083Z,7.13
2022-12-31T02:35:02.172Z,7.20
2022-12-31T02:37:34.589Z,7.18
2022-12-31T02:40:02.996Z,7.39
2022-12-31T02:42:31.087Z,7.46
2022-12-31T02:45:00.554Z,7.62
2022-12-31T02:47:44.745Z,7.72
2022-12-31T02:50:27.136Z,7.84
2022-12-31T02:53:06.971Z,7.94
2022-12-31T02:55:44.966Z,8.07
2022-12-31T02:58:20.836Z,8.09
2022-12-31T03:01:13.087Z,8.07
2022-12-31T03:03:42.264Z,8.04
2022-12-31T03:06:12.170Z,8.01
2022-12-31T03:08:57.660Z,8.01
2022-12-31T03:11:39.827Z,8.02
2022-12-31T03:14:07.954Z,8.10
2022-12-31T03:16:38.213Z,8.09
2022-12-31T03:19:23.861Z,8.08
2022-12-31T03:22:09.449Z,8.26
2022-12-31T03:24:54.841Z,8.10
2022-12-31T03:27:23.028Z,8.11
2022-12-31T03:29:51.092Z,7.97
2022-12-31T03:32:20.549Z,7.49
2022-12-31T03:34:48.677Z,7.20
2022-12-31T03:37:16.813Z,7.68
2022-12-31T03:39:44.906Z,7.78
2022-12-31T03:42:13.066Z,7.67
2022-12-31T03:44:41.150Z,7.68
2022-12-31T03:47:09.309Z,7.62
2022-12-31T03:49:38.841Z,7.73
2022-12-31T03:52:08.708Z,7.76
2022-12-31T03:54:36.808Z,7.79
2022-12-31T03:57:05.148Z,7.96
2022-12-31T03:59:33.302Z,7.86
2022-12-31T04:02:01.602Z,7.98
2022-12-31T04:04:29.821Z,7.99
2022-12-31T04:06:59.318Z,8.28
2022-12-31T04:09:27.442Z,8.25
2022-12-31T04:11:55.586Z,8.29
2022-12-31T04:14:23.832Z,8.12
2022-12-31T04:16:51.917Z,8.22
2022-12-31T04:19:20.370Z,8.49
2022-12-31T04:21:48.464Z,8.83
2022-12-31T04:24:18.139Z,8.99
2022-12-31T04:26:46.254Z,8.94
2022-12-31T04:29:15.588Z,8.93
2022-12-31T04:31:43.747Z,8.90
2022-12-31T04:34:11.831Z,8.39
2022-12-31T04:36:39.964Z,8.67
2022-12-31T04:39:08.385Z,8.84
2022-12-31T04:41:37.915Z,8.91
2022-12-31T04:44:06.296Z,8.78
2022-12-31T04:46:35.196Z,8.47
2022-12-31T04:49:03.432Z,8.51
2022-12-31T04:51:32.667Z,8.63
2022-12-31T04:54:01.482Z,8.56
2022-12-31T04:56:30.258Z,8.63
2022-12-31T04:59:00.045Z,8.57
2022-12-31T05:01:28.326Z,8.10
2022-12-31T05:03:56.507Z,8.35
2022-12-31T05:06:25.012Z,8.51
2022-12-31T05:08:53.116Z,8.11
2022-12-31T05:11:21.483Z,7.86
2022-12-31T05:13:49.558Z,7.68
2022-12-31T05:16:19.100Z,7.77
2022-12-31T05:18:47.261Z,8.01
2022-12-31T05:21:21.278Z,7.64
2022-12-31T05:23:50.079Z,7.55
2022-12-31T05:26:18.704Z,7.86
2022-12-31T05:28:46.861Z,8.15
2022-12-31T05:31:14.988Z,8.22
2022-12-31T05:33:44.487Z,8.43
2022-12-31T05:36:12.640Z,8.29
2022-12-31T05:38:40.700Z,8.21
2022-12-31T05:41:10.344Z,8.51
2022-12-31T05:43:38.455Z,8.47
2022-12-31T05:46:07.467Z,8.49
2022-12-31T05:48:35.688Z,8.49
2022-12-31T05:51:05.359Z,8.31
2022-12-31T05:53:34.524Z,8.15
2022-12-31T05:56:02.680Z,8.36
2022-12-31T05:58:30.733Z,8.18
2022-12-31T06:00:58.864Z,8.30
2022-12-31T06:03:27.116Z,8.72
2022-12-31T06:05:55.308Z,8.17
2022-12-31T06:08:24.977Z,8.21
2022-12-31T06:10:54.565Z,8.05
2022-12-31T06:13:22.655Z,8.12
2022-12-31T06:15:50.759Z,8.03
2022-12-31T06:18:18.962Z,8.07
2022-12-31T06:20:47.043Z,8.22
2022-12-31T06:23:15.148Z,8.57
2022-12-31T06:25:45.009Z,8.20
2022-12-31T06:28:19.832Z,7.92
2022-12-31T06:30:48.715Z,7.65
2022-12-31T06:33:16.791Z,7.59
2022-12-31T06:35:44.861Z,7.77
2022-12-31T06:38:13.001Z,8.47
2022-12-31T06:40:41.092Z,8.76
2022-12-31T06:43:10.559Z,8.11
2022-12-31T06:45:39.605Z,8.05
2022-12-31T06:48:08.266Z,8.08
2022-12-31T06:50:36.461Z,7.93
2022-12-31T06:53:04.817Z,8.21
2022-12-31T06:55:33.783Z,8.30
2022-12-31T06:58:03.975Z,8.32
2022-12-31T07:00:34.051Z,8.24
2022-12-31T07:03:25.148Z,8.21
2022-12-31T07:05:58.810Z,8.27
2022-12-31T07:08:41.134Z,8.99
2022-12-31T07:11:16.624Z,9.01
2022-12-31T07:13:55.755Z,9.71
2022-12-31T07:16:37.572Z,10.01
2022-12-31T07:19:27.893Z,10.26
2022-12-31T07:22:00.099Z,10.52
2022-12-31T07:24:29.156Z,10.53
2022-12-31T07:27:11.986Z,10.81
2022-12-31T07:30:00.238Z,10.92
2022-12-31T07:32:46.383Z,10.39
2022-12-31T07:35:23.186Z,10.50
2022-12-31T07:37:59.867Z,10.58
2022-12-31T07:40:36.719Z,10.66
2022-12-31T07:43:12.435Z,10.53
2022-12-31T07:45:49.078Z,10.60
2022-12-31T07:48:24.789Z,10.65
2022-12-31T07:50:55.562Z,10.65
2022-12-31T07:53:25.169Z,10.58
2022-12-31T07:55:57.497Z,10.73
2022-12-31T07:58:38.184Z,10.78
2022-12-31T08:01:07.140Z,10.70
2022-12-31T08:03:53.769Z,10.58
2022-12-31T08:06:35.092Z,10.15
2022-12-31T08:09:08.333Z,9.89
2022-12-31T08:11:42.696Z,10.37
2022-12-31T08:14:13.040Z,10.35
2022-12-31T08:16:41.883Z,9.95
2022-12-31T08:19:21.547Z,10.32
2022-12-31T08:22:04.995Z,10.51
2022-12-31T08:24:44.165Z,11.03
2022-12-31T08:27:21.695Z,10.63
2022-12-31T08:30:02.850Z,11.02
2022-12-31T08:32:42.386Z,11.34
2022-12-31T08:35:25.227Z,11.66
2022-12-31T08:38:03.697Z,11.40
2022-12-31T08:40:44.802Z,11.79
2022-12-31T08:43:28.494Z,11.62
2022-12-31T08:45:58.198Z,11.81
2022-12-31T08:48:34.144Z,11.84
2022-12-31T08:51:04.317Z,12.01
2022-12-31T08:53:35.135Z,12.01
2022-12-31T08:56:09.148Z,12.17
2022-12-31T08:58:46.569Z,12.36
2022-12-31T09:01:19.160Z,12.14
2022-12-31T09:04:02.829Z,11.66
2022-12-31T09:06:35.056Z,12.17
2022-12-31T09:09:11.759Z,12.45
2022-12-31T09:11:55.544Z,12.28
2022-12-31T09:14:41.703Z,12.32
2022-12-31T09:17:32.272Z,12.60
2022-12-31T09:20:00.849Z,12.60
2022-12-31T09:22:30.864Z,12.71
2022-12-31T09:24:59.542Z,12.75
2022-12-31T09:27:31.533Z,12.42
2022-12-31T09:30:05.386Z,12.75
2022-12-31T09:32:43.204Z,12.85
2022-12-31T09:35:20.560Z,12.67
2022-12-31T09:37:52.033Z,12.75
2022-12-31T09:40:47.327Z,12.74
2022-12-31T09:43:48.195Z,12.68
2022-12-31T09:46:52.516Z,12.96
2022-12-31T09:50:11.276Z,13.53
2022-12-31T09:52:57.631Z,13.71
2022-12-31T09:55:35.251Z,13.99
2022-12-31T09:58:18.214Z,13.85
2022-12-31T10:00:53.491Z,13.60
2022-12-31T10:03:42.984Z,14.01
2022-12-31T10:06:25.766Z,14.22
2022-12-31T10:09:28.347Z,13.92
2022-12-31T10:12:12.456Z,13.82
2022-12-31T10:14:55.647Z,14.11
2022-12-31T10:17:49.259Z,13.89
2022-12-31T10:20:35.308Z,13.87
2022-12-31T10:23:20.857Z,14.04
2022-12-31T10:26:07.583Z,14.07
2022-12-31T10:28:50.135Z,13.70
2022-12-31T10:31:32.544Z,14.01
2022-12-31T10:34:14.199Z,14.19
2022-12-31T10:36:55.274Z,14.33
2022-12-31T10:39:40.485Z,14.43
2022-12-31T10:42:33.638Z,14.51
2022-12-31T10:45:34.676Z,14.71
2022-12-31T10:48:37.557Z,14.80
2022-12-31T10:51:59.374Z,14.47
2022-12-31T10:54:51.335Z,14.69
2022-12-31T10:57:49.087Z,14.66
2022-12-31T11:00:20.368Z,14.82
2022-12-31T11:03:54.653Z,15.17
2022-12-31T11:06:56.060Z,15.06
2022-12-31T11:09:59.095Z,15.41
2022-12-31T11:12:59.737Z,14.76
2022-12-31T11:15:50.381Z,14.82
2022-12-31T11:18:31.352Z,14.90
2022-12-31T11:21:16.494Z,15.05
2022-12-31T11:23:56.327Z,15.05
2022-12-31T11:26:36.546Z,14.70
2022-12-31T11:29:25.673Z,14.87
2022-12-31T11:32:17.318Z,14.73
2022-12-31T11:35:19.025Z,14.95
2022-12-31T11:37:50.448Z,14.77
2022-12-31T11:40:42.088Z,14.77
2022-12-31T11:43:23.472Z,14.88
2022-12-31T11:46:20.325Z,14.71
2022-12-31T11:49:01.643Z,15.24
2022-12-31T11:51:56.060Z,15.26
2022-12-31T11:54:50.872Z,15.11
2022-12-31T11:57:26.606Z,15.19
2022-12-31T11:59:58.986Z,15.30
2022-12-31T12:02:29.540Z,15.12
2022-12-31T12:05:08.544Z,15.14
2022-12-31T12:07:39.090Z,15.41
2022-12-31T12:10:20.595Z,15.48
2022-12-31T12:12:49.143Z,15.51
2022-12-31T12:15:23.372Z,15.75
2022-12-31T12:17:54.962Z,15.75
2022-12-31T12:20:31.865Z,15.69
2022-12-31T12:23:02.309Z,16.00
2022-12-31T12:25:39.344Z,16.45
2022-12-31T12:28:23.764Z,15.89
2022-12-31T12:30:56.428Z,15.90
2022-12-31T12:33:25.556Z,15.65
2022-12-31T12:35:55.019Z,16.12
2022-12-31T12:38:24.708Z,16.38
2022-12-31T12:40:58.421Z,15.95
2022-12-31T12:43:29.920Z,16.25
2022-12-31T12:46:01.954Z,16.36
2022-12-31T12:48:39.241Z,15.96
2022-12-31T12:51:26.568Z,16.15
2022-12-31T12:54:04.395Z,16.21
2022-12-31T12:56:43.506Z,16.21
2022-12-31T12:59:43.737Z,16.53
2022-12-31T13:02:32.409Z,16.23
2022-12-31T13:05:16.260Z,16.13
2022-12-31T13:07:58.431Z,16.32
2022-12-31T13:10:44.050Z,16.10
2022-12-31T13:13:24.630Z,15.66
2022-12-31T13:16:03.278Z,16.15
2022-12-31T13:18:44.400Z,16.33
2022-12-31T13:21:29.310Z,16.08
2022-12-31T13:24:06.452Z,16.10
2022-12-31T13:26:40.490Z,16.38
2022-12-31T13:29:16.601Z,16.46
2022-12-31T13:31:45.284Z,16.60
2022-12-31T13:34:18.331Z,16.75
2022-12-31T13:36:48.958Z,16.54
2022-12-31T13:39:24.737Z,16.36
2022-12-31T13:42:00.012Z,16.47
2022-12-31T13:44:32.178Z,16.72
2022-12-31T13:47:07.155Z,16.39
2022-12-31T13:49:43.400Z,16.49
2022-12-31T13:52:23.564Z,16.19
2022-12-31T13:54:58.192Z,16.45
2022-12-31T13:57:39.292Z,16.23
2022-12-31T14:00:18.516Z,16.30
2022-12-31T14:02:53.822Z,16.69
2022-12-31T14:05:30.111Z,16.43
2022-12-31T14:08:01.064Z,16.25
2022-12-31T14:10:42.738Z,16.83
2022-12-31T14:13:25.662Z,16.99
2022-12-31T14:16:07.415Z,16.53
2022-12-31T14:18:45.000Z,16.39
2022-12-31T14:21:19.869Z,16.40
2022-12-31T14:23:54.147Z,16.63
2022-12-31T14:26:29.151Z,16.28
2022-12-31T14:29:08.510Z,16.18
2022-12-31T14:31:58.766Z,15.72
2022-12-31T14:34:36.565Z,16.00
2022-12-31T14:37:13.463Z,15.98
2022-12-31T14:39:51.200Z,15.81
2022-12-31T14:42:31.091Z,15.67
2022-12-31T14:45:18.820Z,15.62
2022-12-31T14:47:54.782Z,15.69
2022-12-31T14:50:26.246Z,15.60
2022-12-31T14:52:56.642Z,15.71
2022-12-31T14:55:28.850Z,15.61
2022-12-31T14:58:29.598Z,15.68
2022-12-31T15:00:56.035Z,15.79
2022-12-31T15:03:27.074Z,15.81
2022-12-31T15:06:00.297Z,15.83
2022-12-31T15:08:40.969Z,15.85
2022-12-31T15:11:31.739Z,15.79
2022-12-31T15:14:21.440Z,15.53
2022-12-31T15:16:56.617Z,15.66
2022-12-31T15:20:05.292Z,15.56
2022-12-31T15:22:41.112Z,15.48
2022-12-31T15:25:25.727Z,15.49
2022-12-31T15:27:54.443Z,15.72
2022-12-31T15:30:39.206Z,15.47
2022-12-31T15:33:11.033Z,15.28
2022-12-31T15:35:49.247Z,15.45
2022-12-31T15:38:36.190Z,15.72
2022-12-31T15:41:17.051Z,15.64
2022-12-31T15:43:49.608Z,15.77
2022-12-31T15:46:22.509Z,15.82
2022-12-31T15:49:01.999Z,16.12
2022-12-31T15:51:37.601Z,15.88
2022-12-31T15:54:08.295Z,15.98
2022-12-31T15:56:45.231Z,15.98
2022-12-31T15:59:15.529Z,15.72
2022-12-31T16:01:46.675Z,15.81
2022-12-31T16:04:19.437Z,15.31
2022-12-31T16:06:50.963Z,15.44
2022-12-31T16:09:23.667Z,15.31
2022-12-31T16:11:54.175Z,15.53
2022-12-31T16:14:26.026Z,15.39
2022-12-31T16:16:58.543Z,15.47
2022-12-31T16:19:32.938Z,15.42
2022-12-31T16:22:07.880Z,15.40
2022-12-31T16:24:48.896Z,15.69
2022-12-31T16:27:27.228Z,15.79
2022-12-31T16:30:00.594Z,15.86
2022-12-31T16:32:35.862Z,15.89
2022-12-31T16:35:10.088Z,15.89
2022-12-31T16:37:43.291Z,15.64
2022-12-31T16:40:21.416Z,15.29
2022-12-31T16:42:51.605Z,15.51
2022-12-31T16:45:35.201Z,15.44
2022-12-31T16:48:16.493Z,15.69
2022-12-31T16:50:46.577Z,15.31
2022-12-31T16:53:19.310Z,14.77
2022-12-31T16:55:55.688Z,15.27
2022-12-31T16:58:28.733Z,15.06
2022-12-31T17:01:03.436Z,14.98
2022-12-31T17:03:33.436Z,15.29
2022-12-31T17:06:13.827Z,15.34
2022-12-31T17:08:44.084Z,15.11
2022-12-31T17:11:23.572Z,15.26
2022-12-31T17:13:57.795Z,15.29
2022-12-31T17:16:26.809Z,15.41
2022-12-31T17:18:56.329Z,15.17
2022-12-31T17:21:27.792Z,15.08
2022-12-31T17:24:01.154Z,15.25
2022-12-31T17:26:32.295Z,15.38
2022-12-31T17:29:02.519Z,15.00
2022-12-31T17:31:36.199Z,15.05
2022-12-31T17:34:24.773Z,15.19
2022-12-31T17:37:00.287Z,14.96
2022-12-31T17:39:42.495Z,14.98
2022-12-31T17:42:11.895Z,15.12
2022-12-31T17:44:41.086Z,15.03
2022-12-31T17:47:11.836Z,15.21
2022-12-31T17:49:43.150Z,15.17
2022-12-31T17:52:13.587Z,15.12
2022-12-31T17:54:41.818Z,15.03
2022-12-31T17:57:24.390Z,15.07
2022-12-31T17:59:52.659Z,15.45
2022-12-31T18:02:20.945Z,14.86
2022-12-31T18:04:50.463Z,15.18
2022-12-31T18:07:18.664Z,15.40
2022-12-31T18:09:46.779Z,15.07
2022-12-31T18:12:16.657Z,14.95
2022-12-31T18:14:46.685Z,14.74
2022-12-31T18:17:16.589Z,14.34
2022-12-31T18:22:34.265Z,15.02
2022-12-31T18:25:02.409Z,15.00
2022-12-31T18:27:30.752Z,14.58
2022-12-31T18:30:04.474Z,14.68
2022-12-31T18:32:35.312Z,14.86
2022-12-31T18:35:03.598Z,15.08
2022-12-31T18:37:35.571Z,14.93
2022-12-31T18:40:03.797Z,14.84
2022-12-31T18:42:31.894Z,14.79
2022-12-31T18:45:00.147Z,14.72
2022-12-31T18:47:31.426Z,14.90
2022-12-31T18:50:05.123Z,14.58
2022-12-31T18:52:34.761Z,14.05
2022-12-31T18:55:02.996Z,13.94
2022-12-31T18:57:31.081Z,14.03
2022-12-31T18:59:59.216Z,14.07
2022-12-31T19:02:27.332Z,13.85
2022-12-31T19:04:55.388Z,13.08
2022-12-31T19:07:23.595Z,13.28
2022-12-31T19:09:58.342Z,13.39
2022-12-31T19:12:26.662Z,13.07
2022-12-31T19:14:54.790Z,12.90
2022-12-31T19:17:26.151Z,12.78
2022-12-31T19:19:54.299Z,12.65
2022-12-31T19:22:22.404Z,12.59
2022-12-31T19:24:50.492Z,12.86
2022-12-31T19:27:20.093Z,12.82
2022-12-31T19:29:48.285Z,12.96
2022-12-31T19:32:16.393Z,12.89
2022-12-31T19:34:44.505Z,13.01
2022-12-31T19:37:15.970Z,13.10
2022-12-31T19:39:44.172Z,12.80
2022-12-31T19:42:16.680Z,12.80
2022-12-31T19:44:46.143Z,12.87
2022-12-31T19:47:14.689Z,13.02
2022-12-31T19:49:42.878Z,13.40
2022-12-31T19:52:11.986Z,12.82
2022-12-31T19:54:40.063Z,12.59
2022-12-31T19:57:08.170Z,13.29
2022-12-31T19:59:36.247Z,13.49
2022-12-31T20:02:05.961Z,13.12
2022-12-31T20:04:34.172Z,13.17
2022-12-31T20:07:02.273Z,13.52
2022-12-31T20:09:30.341Z,13.64
2022-12-31T20:11:58.452Z,14.26
2022-12-31T20:14:26.667Z,14.20
2022-12-31T20:16:56.131Z,14.22
2022-12-31T20:19:25.676Z,14.57
2022-12-31T20:21:53.824Z,14.42
2022-12-31T20:24:22.003Z,14.47
2022-12-31T20:26:50.117Z,14.14
2022-12-31T20:29:18.464Z,14.83
2022-12-31T20:31:46.612Z,15.14
2022-12-31T20:34:14.803Z,15.28
2022-12-31T20:36:44.318Z,15.07
2022-12-31T20:39:12.525Z,14.89
2022-12-31T20:41:40.627Z,14.74
2022-12-31T20:44:09.057Z,14.85
2022-12-31T20:46:37.307Z,14.92
2022-12-31T20:49:05.699Z,14.97
2022-12-31T20:51:35.753Z,15.04
2022-12-31T20:54:07.106Z,15.39
2022-12-31T20:56:37.813Z,15.54
2022-12-31T20:59:06.452Z,15.51
2022-12-31T21:01:55.619Z,15.43
2022-12-31T21:04:22.965Z,15.70
2022-12-31T21:06:52.376Z,15.82
2022-12-31T21:09:21.914Z,15.95
2022-12-31T21:12:07.276Z,15.69
2022-12-31T21:14:37.472Z,15.69
2022-12-31T21:17:09.457Z,15.46
2022-12-31T21:19:37.546Z,15.30
2022-12-31T21:22:05.692Z,15.58
2022-12-31T21:24:35.113Z,15.50
2022-12-31T21:27:03.318Z,15.56
2022-12-31T21:29:34.733Z,15.41
2022-12-31T21:32:04.044Z,15.66
2022-12-31T21:34:32.191Z,15.44
2022-12-31T21:37:00.370Z,15.61
2022-12-31T21:39:28.435Z,15.78
2022-12-31T21:41:57.899Z,15.67
2022-12-31T21:44:28.461Z,15.73
2022-12-31T21:47:39.533Z,15.69
2022-12-31T21:50:08.950Z,15.60
2022-12-31T21:52:37.131Z,15.69
2022-12-31T21:55:24.304Z,14.94
2022-12-31T22:00:59.595Z,15.21
2022-12-31T22:03:28.715Z,15.36
2022-12-31T22:06:00.330Z,15.30
2022-12-31T22:08:29.608Z,15.30
2022-12-31T22:10:58.098Z,15.40
2022-12-31T22:13:27.866Z,15.56
2022-12-31T22:16:03.942Z,15.58
2022-12-31T22:18:35.768Z,15.46
2022-12-31T22:21:05.954Z,15.60
2022-12-31T22:23:35.487Z,15.78
2022-12-31T22:26:04.820Z,14.94
2022-12-31T22:28:39.584Z,15.00
2022-12-31T22:31:08.371Z,15.03
2022-12-31T22:33:36.561Z,14.91
2022-12-31T22:36:07.771Z,15.48
2022-12-31T22:38:36.119Z,15.33
2022-12-31T22:41:06.727Z,14.87
2022-12-31T22:43:38.857Z,14.10
2022-12-31T22:46:08.440Z,14.13
2022-12-31T22:48:36.660Z,14.12
2022-12-31T22:51:04.956Z,14.46
2022-12-31T22:53:33.533Z,14.61
2022-12-31T22:56:01.706Z,14.55
2022-12-31T22:58:29.894Z,13.99
2022-12-31T23:00:59.517Z,13.89
2022-12-31T23:03:27.708Z,13.74
2022-12-31T23:05:55.857Z,13.81
2022-12-31T23:08:24.275Z,13.66
2022-12-31T23:10:59.711Z,13.88
2022-12-31T23:13:50.719Z,14.10
2022-12-31T23:16:38.378Z,14.17
2022-12-31T23:19:24.709Z,14.20
2022-12-31T23:22:10.821Z,14.30
2022-12-31T23:24:39.414Z,14.48
2022-12-31T23:27:08.267Z,14.33
2022-12-31T23:29:45.622Z,14.33
2022-12-31T23:32:16.252Z,14.59
2022-12-31T23:34:46.072Z,14.40
2022-12-31T23:37:15.100Z,14.26
2022-12-31T23:39:43.687Z,14.40
2022-12-31T23:42:11.952Z,14.34
2022-12-31T23:44:40.117Z,14.38
2022-12-31T23:47:08.374Z,14.51
2022-12-31T23:49:37.927Z,14.43
2022-12-31T23:52:06.083Z,14.64
2022-12-31T23:54:35.181Z,14.66
2022-12-31T23:57:03.274Z,15.06
2022-12-31T23:59:31.439Z,15.58
